Time;durP1;ratioP1;P1;durP2;ratioP2;P2;SDS_P1;SDS_P2;PMS_P1;PMS_P2;Temp;Humidity;BMP_temperature;BMP_pressure;BME280_temperature;BME280_humidity;BME280_pressure;Samples;Min_cycle;Max_cycle;Signal;HPM_P1;HPM_P2
2021/08/14 00:00:51;;;;;;;;;3.25;3.25;;;;;26.46;45.57;101931.16;5036958;28;51886;-62
2021/08/14 00:03:17;;;;;;;;;2.75;2.00;;;;;26.45;45.48;101930.31;5037110;28;50887;-62
2021/08/14 00:05:42;;;;;;;;;3.00;3.00;;;;;26.45;45.63;101932.22;5037179;28;51072;-61
2021/08/14 00:08:07;;;;;;;;;2.25;2.25;;;;;26.45;45.66;101924.75;5037156;28;51300;-62
2021/08/14 00:10:33;;;;;;;;;4.00;3.00;;;;;26.45;45.56;101926.69;5037361;28;51014;-62
2021/08/14 00:12:58;;;;;;;;;1.25;1.25;;;;;26.43;45.64;101924.13;5037536;28;50940;-61
2021/08/14 00:15:24;;;;;;;;;4.75;3.50;;;;;26.43;45.68;101928.84;5037403;28;51490;-62
2021/08/14 00:17:49;;;;;;;;;6.00;3.50;;;;;26.42;45.58;101922.44;5037193;28;51134;-61
2021/08/14 00:20:15;;;;;;;;;3.75;3.00;;;;;26.42;45.08;101930.78;5037050;28;51033;-62
2021/08/14 00:22:41;;;;;;;;;3.00;3.00;;;;;26.42;45.35;101918.81;5037418;28;51323;-61
2021/08/14 00:25:07;;;;;;;;;2.75;2.75;;;;;26.41;45.57;101920.75;5037485;28;51026;-62
2021/08/14 00:27:32;;;;;;;;;4.00;3.00;;;;;26.41;45.39;101914.34;5036180;28;51411;-62
2021/08/14 00:29:57;;;;;;;;;2.50;2.50;;;;;26.42;45.31;101918.81;5036967;28;51759;-62
2021/08/14 00:32:23;;;;;;;;;2.00;2.00;;;;;26.40;45.51;101907.94;5037264;28;51017;-62
2021/08/14 00:34:48;;;;;;;;;2.75;2.75;;;;;26.41;45.53;101908.81;5036971;28;51109;-62
2021/08/14 00:37:13;;;;;;;;;2.25;2.25;;;;;26.40;45.51;101907.94;5037592;28;50904;-62
2021/08/14 00:39:39;;;;;;;;;2.25;2.25;;;;;26.39;45.45;101906.25;5036588;28;52038;-62
2021/08/14 00:42:04;;;;;;;;;3.25;2.00;;;;;26.39;45.10;101909.03;5036694;28;51003;-63
2021/08/14 00:44:32;;;;;;;;;3.50;2.00;;;;;26.39;45.68;101909.03;5037142;28;50967;-63
2021/08/14 00:46:57;;;;;;;;;3.00;3.00;;;;;26.39;45.48;101922.09;5037267;28;51230;-62
2021/08/14 00:49:23;;;;;;;;;2.75;2.75;;;;;26.39;45.14;101917.38;5036536;28;51139;-62
2021/08/14 00:51:48;;;;;;;;;3.50;3.00;;;;;26.39;45.48;101913.75;5036945;28;51101;-63
2021/08/14 00:54:13;;;;;;;;;3.00;3.00;;;;;26.38;45.24;101923.16;5036658;28;51042;-62
2021/08/14 00:56:39;;;;;;;;;2.00;2.00;;;;;26.37;45.64;101919.53;5036933;28;51117;-63
2021/08/14 00:59:06;;;;;;;;;2.25;2.25;;;;;26.37;45.19;101924.25;5036312;28;51705;-62
2021/08/14 01:01:33;;;;;;;;;2.00;2.00;;;;;26.36;45.55;101916.94;5036578;28;51191;-62
2021/08/14 01:03:58;;;;;;;;;2.25;2.25;;;;;26.36;45.50;101920.56;5036806;28;51034;-62
2021/08/14 01:06:28;;;;;;;;;4.75;2.00;;;;;26.36;45.47;101919.72;5036915;28;51569;-60
2021/08/14 01:08:55;;;;;;;;;2.25;2.25;;;;;26.36;45.31;101917.78;5036235;28;51108;-63
2021/08/14 01:11:22;;;;;;;;;4.00;3.25;;;;;26.35;45.38;101916.09;5036317;28;51433;-62
2021/08/14 01:13:48;;;;;;;;;3.25;1.50;;;;;26.35;45.46;101921.66;5036686;28;51102;-62
2021/08/14 01:16:13;;;;;;;;;1.50;1.50;;;;;26.34;45.53;101911.63;5036612;28;50967;-63
2021/08/14 01:18:43;;;;;;;;;3.00;3.00;;;;;26.34;45.41;101916.34;5036254;28;51098;-60
2021/08/14 01:21:09;;;;;;;;;4.25;3.50;;;;;26.34;45.26;101908.84;5036188;28;51129;-62
2021/08/14 01:23:35;;;;;;;;;1.00;1.00;;;;;26.33;45.36;101907.16;5036917;28;51021;-62
2021/08/14 01:26:08;;;;;;;;;2.75;1.50;;;;;26.33;45.35;101906.31;5036763;28;51221;-62
2021/08/14 01:28:35;;;;;;;;;1.75;1.00;;;;;26.32;45.56;101899.91;5036419;28;51861;-63
2021/08/14 01:31:01;;;;;;;;;2.25;2.25;;;;;26.31;45.14;101901.00;5036527;28;51117;-62
2021/08/14 01:33:31;;;;;;;;;2.00;2.00;;;;;26.31;45.35;101897.38;5036496;28;51081;-62
2021/08/14 01:35:57;;;;;;;;;3.00;2.00;;;;;26.32;45.50;101899.06;5036811;28;51030;-62
2021/08/14 01:38:22;;;;;;;;;3.75;1.25;;;;;26.31;45.60;101906.56;5034477;28;52640;-62
2021/08/14 01:40:48;;;;;;;;;1.50;1.50;;;;;26.31;45.14;101901.00;5036478;28;51426;-62
2021/08/14 01:43:13;;;;;;;;;2.00;2.00;;;;;26.31;45.17;101897.38;5036246;28;51163;-60
2021/08/14 01:45:40;;;;;;;;;4.00;3.00;;;;;26.30;45.67;101892.91;5036514;28;50949;-62
2021/08/14 01:48:05;;;;;;;;;1.25;1.25;;;;;26.28;45.30;101904.25;5035993;28;51890;-62
2021/08/14 01:50:31;;;;;;;;;3.50;2.00;;;;;26.29;45.24;101897.63;5036302;28;51094;-62
2021/08/14 01:52:56;;;;;;;;;4.00;2.75;;;;;26.28;45.38;101897.88;5036272;28;51053;-62
2021/08/14 01:55:23;;;;;;;;;2.00;2.00;;;;;26.28;45.56;101893.16;5036302;28;51261;-62
2021/08/14 01:57:48;;;;;;;;;1.75;1.75;;;;;26.28;45.15;101898.72;5035776;28;51175;-61
2021/08/14 02:00:14;;;;;;;;;1.00;1.00;;;;;26.28;45.45;101887.59;5034393;28;50976;-62
2021/08/14 02:02:39;;;;;;;;;3.50;1.75;;;;;26.27;45.45;101891.47;5035888;28;51070;-62
2021/08/14 02:05:05;;;;;;;;;2.00;2.00;;;;;26.27;45.22;101888.69;5034500;28;51237;-62
2021/08/14 02:07:31;;;;;;;;;3.50;2.50;;;;;26.26;45.18;101887.00;5035509;28;50896;-62
2021/08/14 02:09:56;;;;;;;;;3.75;2.75;;;;;26.27;45.37;101885.06;5036140;28;50956;-62
2021/08/14 02:12:22;;;;;;;;;2.00;1.75;;;;;26.25;45.26;101876.09;5036064;28;51169;-61
2021/08/14 02:14:47;;;;;;;;;2.00;2.00;;;;;26.26;45.31;101881.44;5036062;28;51023;-62
2021/08/14 02:17:12;;;;;;;;;2.00;2.00;;;;;26.26;45.31;101878.66;5034244;28;50927;-61
2021/08/14 02:19:38;;;;;;;;;3.25;3.00;;;;;26.26;45.19;101878.66;5035480;28;51427;-62
2021/08/14 02:22:03;;;;;;;;;3.50;3.50;;;;;26.25;45.49;101882.50;5036322;28;51018;-62
2021/08/14 02:24:28;;;;;;;;;1.25;1.25;;;;;26.24;45.49;101872.47;5036074;28;50939;-62
2021/08/14 02:26:54;;;;;;;;;2.00;2.00;;;;;26.25;45.28;101876.09;5035866;28;51826;-62
2021/08/14 02:29:19;;;;;;;;;2.00;2.00;;;;;26.24;45.14;101875.25;5035834;28;51214;-62
2021/08/14 02:31:45;;;;;;;;;2.50;2.50;;;;;26.23;45.29;101873.56;5035420;28;51292;-62
2021/08/14 02:34:10;;;;;;;;;3.25;2.75;;;;;26.23;45.24;101872.72;5035946;28;51030;-62
2021/08/14 02:36:36;;;;;;;;;3.00;2.00;;;;;26.24;45.07;101869.69;5035597;28;51975;-62
2021/08/14 02:39:01;;;;;;;;;2.00;1.00;;;;;26.22;45.19;101873.81;5035775;28;51136;-62
2021/08/14 02:41:26;;;;;;;;;2.00;2.00;;;;;26.23;45.39;101868.00;5035665;28;50971;-62
2021/08/14 02:43:52;;;;;;;;;3.00;2.00;;;;;26.23;45.22;101872.72;5035814;28;51376;-62
2021/08/14 02:46:17;;;;;;;;;1.00;1.00;;;;;26.23;45.57;101865.22;5035054;28;51157;-62
2021/08/14 02:48:42;;;;;;;;;2.50;2.50;;;;;26.22;45.39;101863.53;5035075;28;51122;-62
2021/08/14 02:51:08;;;;;;;;;2.75;1.25;;;;;26.22;45.34;101860.75;5038811;28;50944;-62
2021/08/14 02:53:33;;;;;;;;;2.00;2.00;;;;;26.21;45.43;101859.06;5039306;28;50966;-62
2021/08/14 02:55:58;;;;;;;;;1.00;1.00;;;;;26.21;45.14;101859.06;5039031;28;51887;-61
2021/08/14 02:58:24;;;;;;;;;1.00;1.00;;;;;26.21;45.37;101861.00;5039156;28;51087;-61
2021/08/14 03:00:49;;;;;;;;;1.00;1.00;;;;;26.20;45.45;101851.81;5038789;28;51078;-62
2021/08/14 03:03:14;;;;;;;;;3.50;2.75;;;;;26.20;45.37;101851.81;5039167;28;51098;-62
2021/08/14 03:05:41;;;;;;;;;3.25;3.25;;;;;26.19;45.10;101839.03;5038900;28;51915;-62
2021/08/14 03:08:09;;;;;;;;;2.25;1.25;;;;;26.19;45.17;101852.91;5038662;28;51441;-62
2021/08/14 03:10:39;;;;;;;;;3.25;2.00;;;;;26.19;45.29;101845.41;5038985;28;51022;-62
2021/08/14 03:13:04;;;;;;;;;2.25;1.00;;;;;26.18;45.52;101842.88;5054551;28;51158;-62
2021/08/14 03:15:29;;;;;;;;;2.50;2.50;;;;;26.18;45.32;101842.88;5038578;28;51629;-61
2021/08/14 03:17:55;;;;;;;;;2.00;2.00;;;;;26.18;45.06;101845.66;5038673;28;51280;-62
2021/08/14 03:20:20;;;;;;;;;4.50;2.00;;;;;26.18;44.91;101837.34;5038529;28;51069;-62
2021/08/14 03:22:46;;;;;;;;;3.25;3.00;;;;;26.17;45.18;101841.19;5038971;28;50963;-61
2021/08/14 03:25:11;;;;;;;;;1.75;1.75;;;;;26.16;45.03;101834.78;5038566;28;52029;-62
2021/08/14 03:27:36;;;;;;;;;2.00;1.00;;;;;26.16;45.25;101840.34;5038642;28;51071;-62
2021/08/14 03:30:03;;;;;;;;;2.00;2.00;;;;;26.17;45.51;101841.19;5038451;28;51048;-62
2021/08/14 03:32:28;;;;;;;;;3.75;1.75;;;;;26.15;45.41;101835.84;5038880;28;51032;-61
2021/08/14 03:34:53;;;;;;;;;1.00;1.00;;;;;26.15;45.22;101832.22;5038352;28;50931;-62
2021/08/14 03:37:19;;;;;;;;;1.00;1.00;;;;;26.15;45.37;101830.31;5038757;28;51070;-62
2021/08/14 03:39:44;;;;;;;;;2.25;1.00;;;;;26.15;45.68;101838.63;5038356;28;51129;-62
2021/08/14 03:42:09;;;;;;;;;2.00;1.00;;;;;26.14;45.15;101834.16;5038654;28;51380;-62
2021/08/14 03:44:35;;;;;;;;;1.25;1.25;;;;;26.15;45.05;101837.78;5038294;28;51052;-62
2021/08/14 03:47:00;;;;;;;;;1.00;0.75;;;;;26.15;45.37;101832.22;5038343;28;51104;-61
2021/08/14 03:49:25;;;;;;;;;2.00;2.00;;;;;26.14;45.56;101827.75;5038185;28;51487;-61
2021/08/14 03:51:51;;;;;;;;;2.75;2.00;;;;;26.14;45.34;101831.38;5038782;28;51033;-62
2021/08/14 03:54:16;;;;;;;;;2.00;2.00;;;;;26.13;45.21;101829.69;5037946;28;51964;-61
2021/08/14 03:56:41;;;;;;;;;2.00;2.00;;;;;26.13;45.60;101832.47;5038289;28;51173;-61
2021/08/14 03:59:07;;;;;;;;;3.00;1.00;;;;;26.14;45.33;101827.75;5038253;28;51304;-62
2021/08/14 04:01:32;;;;;;;;;3.00;2.00;;;;;26.13;45.22;101823.28;5037956;28;51050;-62
2021/08/14 04:03:58;;;;;;;;;4.75;2.50;;;;;26.13;45.14;101826.91;5037886;28;51779;-62
2021/08/14 04:06:23;;;;;;;;;2.00;2.00;;;;;26.13;45.57;101814.97;5037888;28;51016;-61
2021/08/14 04:08:48;;;;;;;;;2.25;1.00;;;;;26.11;45.42;101820.75;5038162;28;51083;-61
2021/08/14 04:11:14;;;;;;;;;4.50;1.25;;;;;26.11;45.41;101812.44;5038367;28;51467;-62
2021/08/14 04:13:39;;;;;;;;;2.00;2.00;;;;;26.12;45.11;101813.28;5037686;28;51875;-62
2021/08/14 04:16:04;;;;;;;;;4.50;3.00;;;;;26.10;45.33;101818.22;5037615;28;50945;-62
2021/08/14 04:18:30;;;;;;;;;1.50;1.00;;;;;26.11;45.26;101817.97;5037681;28;51491;-62
2021/08/14 04:20:55;;;;;;;;;2.00;1.75;;;;;26.11;45.25;101819.91;5037888;28;51451;-62
2021/08/14 04:23:21;;;;;;;;;2.00;1.00;;;;;26.10;45.48;101813.50;5037798;28;51843;-62
2021/08/14 04:25:46;;;;;;;;;2.00;1.75;;;;;26.10;45.43;101809.91;5037862;28;50915;-62
2021/08/14 04:28:11;;;;;;;;;2.50;2.00;;;;;26.09;45.36;101805.44;5037790;28;51152;-62
2021/08/14 04:30:37;;;;;;;;;2.25;1.50;;;;;26.08;45.30;101807.34;5037928;28;50994;-63
2021/08/14 04:33:02;;;;;;;;;1.00;1.00;;;;;26.08;45.14;101806.50;5037298;28;54931;-62
2021/08/14 04:35:27;;;;;;;;;1.50;1.50;;;;;26.08;45.38;101810.13;5037773;28;51036;-63
2021/08/14 04:37:53;;;;;;;;;2.00;2.00;;;;;26.08;45.37;101801.81;5037777;28;51602;-63
2021/08/14 04:40:18;;;;;;;;;2.00;2.00;;;;;26.08;45.24;101793.47;5037708;28;51365;-62
2021/08/14 04:42:44;;;;;;;;;1.00;1.00;;;;;26.08;45.12;101806.50;5037293;28;51889;-63
2021/08/14 04:45:11;;;;;;;;;2.00;2.00;;;;;26.08;45.45;101798.19;5037397;28;51089;-62
2021/08/14 04:47:37;;;;;;;;;2.00;2.00;;;;;26.06;45.24;101790.09;5037475;28;51046;-63
2021/08/14 04:50:04;;;;;;;;;3.00;2.25;;;;;26.07;45.10;101793.72;5037699;28;51473;-62
2021/08/14 04:52:29;;;;;;;;;1.75;1.75;;;;;26.07;45.45;101796.50;5037232;28;52074;-62
2021/08/14 04:54:55;;;;;;;;;2.50;0.50;;;;;26.06;45.16;101795.66;5037468;28;51074;-62
2021/08/14 04:57:20;;;;;;;;;1.00;1.00;;;;;26.07;45.36;101799.28;5037331;28;50970;-62
2021/08/14 04:59:45;;;;;;;;;3.25;2.00;;;;;26.05;45.32;101801.41;5036713;28;51109;-61
2021/08/14 05:02:11;;;;;;;;;4.25;2.75;;;;;26.07;44.95;101796.50;5036847;28;51074;-61
2021/08/14 05:04:36;;;;;;;;;2.75;2.75;;;;;26.05;45.21;101791.19;5037153;28;51083;-61
2021/08/14 05:07:01;;;;;;;;;2.00;1.00;;;;;26.05;45.13;101795.84;5037042;28;50982;-61
2021/08/14 05:09:27;;;;;;;;;2.25;1.25;;;;;26.05;45.22;101793.09;5037574;28;51262;-62
2021/08/14 05:11:53;;;;;;;;;2.00;2.00;;;;;26.04;45.15;101791.41;5036502;28;51871;-62
2021/08/14 05:14:19;;;;;;;;;2.50;2.50;;;;;26.05;44.92;101793.09;5036862;28;51182;-62
2021/08/14 05:16:44;;;;;;;;;1.00;1.00;;;;;26.04;45.19;101797.78;5036751;28;51177;-62
2021/08/14 05:19:10;;;;;;;;;2.00;2.00;;;;;26.05;45.51;101798.63;5037115;28;51331;-62
2021/08/14 05:21:35;;;;;;;;;0.75;0.75;;;;;26.04;44.98;101794.16;5036800;28;51802;-62
2021/08/14 05:24:02;;;;;;;;;2.00;2.00;;;;;26.03;45.21;101795.25;5037096;28;50953;-62
2021/08/14 05:26:27;;;;;;;;;2.00;2.00;;;;;26.03;45.31;101792.47;5036811;28;51198;-61
2021/08/14 05:28:53;;;;;;;;;1.00;1.00;;;;;26.03;45.34;101800.81;5036989;28;51438;-62
2021/08/14 05:31:18;;;;;;;;;1.25;0.75;;;;;26.00;45.62;101799.38;5035110;28;52653;-61
2021/08/14 05:33:43;;;;;;;;;1.75;1.75;;;;;26.02;45.35;101799.13;5036598;28;51071;-62
2021/08/14 05:36:09;;;;;;;;;4.25;2.00;;;;;26.03;45.26;101800.81;5036898;28;51066;-62
2021/08/14 05:38:35;;;;;;;;;1.25;1.25;;;;;26.01;45.24;101802.97;5036881;28;50888;-61
2021/08/14 05:41:01;;;;;;;;;2.25;2.00;;;;;26.01;45.20;101806.59;5036212;28;51693;-61
2021/08/14 05:43:26;;;;;;;;;2.50;2.00;;;;;26.01;45.67;101809.38;5036362;28;51112;-62
2021/08/14 05:45:51;;;;;;;;;2.00;2.00;;;;;26.00;45.35;101810.47;5036451;28;51129;-62
2021/08/14 05:48:18;;;;;;;;;2.25;2.25;;;;;26.00;45.00;101809.63;5036652;28;51206;-62
2021/08/14 05:50:44;;;;;;;;;4.00;3.00;;;;;26.01;45.47;101819.63;5036402;28;52072;-62
2021/08/14 05:53:09;;;;;;;;;2.25;2.00;;;;;26.01;44.88;101816.88;5036308;28;51093;-62
2021/08/14 05:55:35;;;;;;;;;2.50;1.75;;;;;26.00;45.46;101820.72;5036470;28;51494;-61
2021/08/14 05:58:00;;;;;;;;;2.75;1.50;;;;;26.00;45.27;101817.94;5036349;28;50955;-62
2021/08/14 06:00:25;;;;;;;;;3.50;3.00;;;;;25.99;45.23;101828.22;5035656;28;53057;-61
2021/08/14 06:02:51;;;;;;;;;1.00;1.00;;;;;25.98;45.45;101820.97;5036355;28;51042;-62
2021/08/14 06:05:16;;;;;;;;;2.25;2.25;;;;;26.00;45.32;101829.06;5035075;28;51470;-61
2021/08/14 06:07:42;;;;;;;;;1.00;1.00;;;;;26.00;45.19;101834.59;5036172;28;51040;-61
2021/08/14 06:10:08;;;;;;;;;1.25;1.25;;;;;25.99;45.13;101828.22;5035922;28;51867;-61
2021/08/14 06:12:34;;;;;;;;;1.75;1.00;;;;;25.98;45.26;101834.84;5036290;28;51210;-61
2021/08/14 06:14:59;;;;;;;;;1.00;1.00;;;;;25.98;45.45;101829.28;5036076;28;51112;-63
2021/08/14 06:17:25;;;;;;;;;2.00;2.00;;;;;25.99;45.28;101830.13;5036287;28;50974;-62
2021/08/14 06:19:51;;;;;;;;;2.50;2.00;;;;;25.99;45.00;101835.69;5035290;28;51842;-62
2021/08/14 06:22:16;;;;;;;;;2.75;2.00;;;;;25.99;45.15;101830.13;5035994;28;50955;-62
2021/08/14 06:24:42;;;;;;;;;3.25;2.00;;;;;25.99;45.22;101827.38;5034921;28;51600;-62
2021/08/14 06:27:07;;;;;;;;;1.75;1.75;;;;;25.98;45.14;101832.06;5035987;28;51271;-62
2021/08/14 06:29:32;;;;;;;;;2.00;2.00;;;;;25.98;45.23;101834.84;5035609;28;51656;-62
2021/08/14 06:31:58;;;;;;;;;2.50;2.50;;;;;25.99;45.01;101828.22;5034448;28;51093;-61
2021/08/14 06:34:23;;;;;;;;;3.00;2.00;;;;;26.00;45.27;101831.84;5035792;28;51058;-61
2021/08/14 06:36:49;;;;;;;;;3.25;2.00;;;;;26.00;45.46;101835.44;5036257;28;51314;-62
2021/08/14 06:39:14;;;;;;;;;1.00;1.00;;;;;26.03;44.98;101840.53;5035677;28;50954;-61
2021/08/14 06:41:39;;;;;;;;;1.75;0.25;;;;;26.04;45.24;101835.81;5035680;28;51116;-63
2021/08/14 06:44:05;;;;;;;;;2.50;2.00;;;;;26.05;45.04;101835.59;5035725;28;51133;-62
2021/08/14 06:46:30;;;;;;;;;2.25;2.25;;;;;26.06;45.13;101837.28;5035759;28;51411;-62
2021/08/14 06:48:55;;;;;;;;;2.50;1.75;;;;;26.08;45.04;101837.06;5035320;28;51073;-62
2021/08/14 06:51:21;;;;;;;;;2.00;2.00;;;;;26.10;44.75;101840.44;5035623;28;50971;-64
2021/08/14 06:53:48;;;;;;;;;3.50;3.50;;;;;26.10;45.13;101832.94;5035723;28;51061;-63
2021/08/14 06:56:14;;;;;;;;;2.25;2.25;;;;;26.13;44.63;101838.03;5035604;28;51337;-62
2021/08/14 06:58:39;;;;;;;;;3.50;2.00;;;;;26.15;44.92;101837.78;5035333;28;52083;-63
2021/08/14 07:01:04;;;;;;;;;2.00;2.00;;;;;26.17;44.50;101832.88;5034813;28;58419;-63
2021/08/14 07:03:30;;;;;;;;;1.25;1.00;;;;;26.18;44.84;101827.06;5035235;28;51530;-62
2021/08/14 07:05:55;;;;;;;;;2.00;2.00;;;;;26.22;44.66;101838.53;5035642;28;51188;-62
2021/08/14 07:08:20;;;;;;;;;3.25;1.75;;;;;26.25;44.58;101837.22;5033415;28;58431;-62
2021/08/14 07:10:46;;;;;;;;;1.00;1.00;;;;;26.27;44.75;101835.91;5035420;28;50908;-62
2021/08/14 07:13:11;;;;;;;;;2.75;1.25;;;;;26.29;44.38;101830.97;5035487;28;50971;-63
2021/08/14 07:15:36;;;;;;;;;1.25;1.25;;;;;26.31;44.29;101837.13;5035082;28;51141;-62
2021/08/14 07:18:02;;;;;;;;;1.00;1.00;;;;;26.33;44.58;101826.59;5034882;28;51466;-64
2021/08/14 07:20:27;;;;;;;;;3.25;2.00;;;;;26.35;44.41;101827.22;5034887;28;51002;-62
2021/08/14 07:22:53;;;;;;;;;1.75;1.75;;;;;26.38;44.17;101835.13;5035276;28;51278;-63
2021/08/14 07:25:18;;;;;;;;;2.00;2.00;;;;;26.41;43.96;101833.78;5050774;28;51332;-63
2021/08/14 07:27:44;;;;;;;;;1.50;1.50;;;;;26.43;43.81;101838.00;5034509;28;52371;-63
2021/08/14 07:30:10;;;;;;;;;3.25;3.25;;;;;26.46;44.10;101823.63;5033747;28;51032;-62
2021/08/14 07:32:36;;;;;;;;;3.50;2.00;;;;;26.49;44.25;101835.38;5035187;28;51078;-63
2021/08/14 07:35:02;;;;;;;;;2.25;2.00;;;;;26.50;44.22;101826.81;5035368;28;51097;-62
2021/08/14 07:37:28;;;;;;;;;2.00;2.00;;;;;26.51;44.39;101830.44;5038475;28;52011;-63
2021/08/14 07:39:54;;;;;;;;;2.50;2.00;;;;;26.51;43.87;101820.16;5037301;28;51659;-63
2021/08/14 07:42:19;;;;;;;;;2.25;2.25;;;;;26.53;44.12;101811.59;5038526;28;50916;-61
2021/08/14 07:44:44;;;;;;;;;3.00;3.00;;;;;26.54;44.04;101816.03;5038350;28;50988;-62
2021/08/14 07:47:10;;;;;;;;;3.50;2.25;;;;;26.55;43.89;101821.38;5038611;28;51025;-62
2021/08/14 07:49:35;;;;;;;;;3.75;2.00;;;;;26.57;43.83;101816.41;5038176;28;50918;-62
2021/08/14 07:52:01;;;;;;;;;3.25;2.75;;;;;26.59;43.88;101825.38;5038123;28;51074;-61
2021/08/14 07:54:28;;;;;;;;;4.50;3.50;;;;;26.60;43.75;101823.44;5038265;28;50953;-63
2021/08/14 07:56:55;;;;;;;;;2.75;2.75;;;;;26.61;43.75;101823.19;5037868;28;52077;-62
2021/08/14 07:59:20;;;;;;;;;3.00;3.00;;;;;26.61;44.00;101814.84;5037641;28;51109;-61
2021/08/14 08:01:45;;;;;;;;;3.00;1.25;;;;;26.63;43.35;101811.84;5038055;28;51237;-62
2021/08/14 08:04:11;;;;;;;;;3.75;2.00;;;;;26.65;43.50;101812.44;5038324;28;51129;-61
2021/08/14 08:06:36;;;;;;;;;2.00;1.50;;;;;26.65;43.20;101807.72;5037952;28;51977;-62
2021/08/14 08:09:01;;;;;;;;;2.00;2.00;;;;;26.67;43.19;101804.69;5037740;28;51075;-62
2021/08/14 08:11:27;;;;;;;;;2.50;2.00;;;;;26.67;43.18;101807.47;5038061;28;51073;-62
2021/08/14 08:13:52;;;;;;;;;1.50;1.50;;;;;26.69;43.32;101802.53;5037998;28;51016;-62
2021/08/14 08:16:17;;;;;;;;;1.75;1.75;;;;;26.72;43.39;101804.84;5037693;28;51690;-62
2021/08/14 08:18:43;;;;;;;;;1.25;1.25;;;;;26.72;43.49;101799.28;5037689;28;51168;-62
2021/08/14 08:21:08;;;;;;;;;4.00;3.00;;;;;26.72;43.39;101800.13;5037311;28;51193;-62
2021/08/14 08:23:33;;;;;;;;;2.00;2.00;;;;;26.73;43.60;101804.59;5037866;28;51284;-62
2021/08/14 08:25:58;;;;;;;;;2.50;2.50;;;;;26.74;43.50;101797.94;5037402;28;52430;-63
2021/08/14 08:28:24;;;;;;;;;2.00;1.00;;;;;26.75;42.77;101798.78;5037300;28;51079;-63
2021/08/14 08:30:50;;;;;;;;;3.50;2.00;;;;;26.76;42.82;101797.69;5037324;28;50981;-62
2021/08/14 08:33:16;;;;;;;;;2.75;2.00;;;;;26.77;43.28;101800.22;5037654;28;50995;-63
2021/08/14 08:35:41;;;;;;;;;3.50;3.00;;;;;26.77;43.33;101800.22;5037066;28;50883;-63
2021/08/14 08:38:06;;;;;;;;;2.00;1.75;;;;;26.78;42.85;101795.50;5037542;28;50959;-63
2021/08/14 08:40:36;;;;;;;;;1.50;1.50;;;;;26.79;42.98;101794.44;5037371;28;50959;-62
2021/08/14 08:43:01;;;;;;;;;4.50;3.00;;;;;26.80;42.68;101790.56;5037465;28;51468;-61
2021/08/14 08:45:27;;;;;;;;;2.00;1.75;;;;;26.81;42.55;101792.25;5037020;28;50971;-63
2021/08/14 08:47:53;;;;;;;;;2.25;2.25;;;;;26.81;43.04;101792.25;5036109;28;51152;-61
2021/08/14 08:50:19;;;;;;;;;2.00;2.00;;;;;26.81;43.02;101792.25;5037280;28;51212;-62
2021/08/14 08:52:44;;;;;;;;;1.75;1.75;;;;;26.82;43.02;101788.41;5037454;28;50978;-62
2021/08/14 08:55:14;;;;;;;;;2.00;2.00;;;;;26.83;43.11;101787.31;5036853;28;52530;-61
2021/08/14 08:57:40;;;;;;;;;3.50;3.50;;;;;26.83;42.49;101781.75;5037339;28;51066;-61
2021/08/14 09:00:06;;;;;;;;;3.25;2.00;;;;;26.83;42.68;101781.75;5036401;28;51080;-61
2021/08/14 09:02:34;;;;;;;;;1.50;1.50;;;;;26.84;43.11;101785.38;5037104;28;51114;-60
2021/08/14 09:05:12;;;;;;;;;4.00;4.00;;;;;26.85;42.57;101776.78;5036711;28;50976;-61
2021/08/14 09:07:39;;;;;;;;;2.25;1.75;;;;;26.86;42.72;101772.91;5037134;28;51035;-60
2021/08/14 09:10:07;;;;;;;;;3.25;1.75;;;;;26.86;42.83;101763.72;5036975;28;51012;-61
2021/08/14 09:12:37;;;;;;;;;3.75;2.75;;;;;26.87;42.93;101777.38;5036677;28;51206;-61
2021/08/14 09:15:03;;;;;;;;;5.25;2.75;;;;;26.88;42.48;101776.28;5036319;28;50988;-61
2021/08/14 09:17:29;;;;;;;;;3.00;3.00;;;;;26.89;42.97;101772.44;5036569;28;51193;-62
2021/08/14 09:20:23;;;;;;;;;2.00;2.00;;;;;26.89;42.83;101772.44;5036408;28;51066;-62
2021/08/14 09:22:59;;;;;;;;;3.00;2.00;;;;;26.90;42.33;101776.91;5023428;28;51205;-62
2021/08/14 09:25:25;;;;;;;;;3.00;3.00;;;;;26.91;42.82;101775.81;5036143;28;51918;-62
2021/08/14 09:27:56;;;;;;;;;4.00;2.00;;;;;26.93;42.46;101770.00;5036387;28;51082;-62
2021/08/14 09:30:48;;;;;;;;;2.00;2.00;;;;;26.93;42.33;101765.28;5036209;28;51033;-62
2021/08/14 09:33:17;;;;;;;;;3.00;3.00;;;;;26.93;42.76;101765.28;5036417;28;50957;-62
2021/08/14 09:35:43;;;;;;;;;3.50;2.75;;;;;26.95;42.68;101768.66;5036123;28;50974;-61
2021/08/14 09:38:12;;;;;;;;;4.00;2.00;;;;;26.96;42.58;101763.94;5036386;28;51072;-63
2021/08/14 09:40:41;;;;;;;;;2.75;1.00;;;;;26.96;42.22;101759.22;5036222;28;51197;-62
2021/08/14 09:43:07;;;;;;;;;1.00;1.00;;;;;26.96;42.72;101763.94;5036418;28;50976;-61
2021/08/14 09:45:33;;;;;;;;;1.75;1.75;;;;;26.96;42.43;101753.69;5035852;28;51298;-61
2021/08/14 09:48:15;;;;;;;;;2.50;2.50;;;;;26.97;42.72;101758.16;5036334;28;51370;-61
2021/08/14 09:50:41;;;;;;;;;1.25;1.25;;;;;26.99;42.64;101758.78;5036625;28;51122;-61
2021/08/14 09:53:16;;;;;;;;;3.00;3.00;;;;;26.99;42.26;101761.56;5036207;28;50878;-62
2021/08/14 09:55:44;;;;;;;;;2.75;2.75;;;;;27.01;42.43;101758.53;5035185;28;52814;-62
2021/08/14 09:58:10;;;;;;;;;2.50;2.50;;;;;27.02;42.61;101752.75;5035984;28;51245;-62
2021/08/14 10:00:38;;;;;;;;;3.50;3.50;;;;;27.03;42.59;101750.81;5035666;28;51141;-62
2021/08/14 10:03:03;;;;;;;;;1.75;1.75;;;;;27.03;41.89;101756.38;5036283;28;51140;-62
2021/08/14 10:05:33;;;;;;;;;2.25;2.00;;;;;27.05;42.51;101743.06;5035859;28;51047;-62
2021/08/14 10:08:03;;;;;;;;;5.00;4.00;;;;;27.06;42.36;101749.47;5035549;28;51433;-62
2021/08/14 10:10:29;;;;;;;;;5.00;3.00;;;;;27.07;42.44;101746.44;5035874;28;51070;-62
2021/08/14 10:12:58;;;;;;;;;4.50;3.25;;;;;27.08;42.34;101744.50;5035664;28;51355;-61
2021/08/14 10:15:24;;;;;;;;;2.25;2.25;;;;;27.07;41.91;101743.66;5035278;28;51093;-62
2021/08/14 10:17:49;;;;;;;;;4.50;2.00;;;;;27.08;41.80;101736.16;5035217;28;51117;-61
2021/08/14 10:20:15;;;;;;;;;4.00;3.00;;;;;27.09;41.57;101737.84;5035370;28;51202;-62
2021/08/14 10:22:41;;;;;;;;;3.25;1.75;;;;;27.09;42.24;101735.91;5035890;28;51306;-61
2021/08/14 10:25:14;;;;;;;;;2.00;2.00;;;;;27.10;42.13;101731.22;5035033;28;51040;-61
2021/08/14 10:28:04;;;;;;;;;2.00;2.00;;;;;27.11;42.23;101727.34;5035305;28;51064;-61
2021/08/14 10:30:50;;;;;;;;;3.00;2.25;;;;;27.11;41.72;101728.19;5034734;28;51126;-62
2021/08/14 10:33:28;;;;;;;;;3.25;3.00;;;;;27.12;42.07;101729.88;5035340;28;51070;-62
2021/08/14 10:35:58;;;;;;;;;4.75;3.75;;;;;27.13;42.05;101708.47;5035037;28;52135;-61
2021/08/14 10:38:37;;;;;;;;;1.75;1.50;;;;;27.14;41.95;101718.50;5035414;28;51159;-62
2021/08/14 10:41:03;;;;;;;;;2.00;2.00;;;;;27.14;42.16;101713.78;5035225;28;51106;-61
2021/08/14 10:43:54;;;;;;;;;3.50;2.75;;;;;27.14;42.00;101710.16;5035227;28;51132;-61
2021/08/14 10:46:31;;;;;;;;;2.25;2.25;;;;;27.15;41.61;101706.28;5034708;28;51819;-62
2021/08/14 10:48:58;;;;;;;;;4.00;2.75;;;;;27.15;42.01;101707.13;5034654;28;51468;-61
2021/08/14 10:51:23;;;;;;;;;3.00;2.25;;;;;27.15;41.92;101704.34;5035090;28;51161;-61
2021/08/14 10:53:51;;;;;;;;;4.50;3.00;;;;;27.16;41.58;101699.63;5034826;28;51091;-62
2021/08/14 10:56:51;;;;;;;;;5.25;3.00;;;;;27.15;41.96;101698.78;5034225;28;52055;-62
2021/08/14 10:59:35;;;;;;;;;3.25;3.00;;;;;27.15;41.59;101696.00;5034453;28;51163;-64
2021/08/14 11:02:20;;;;;;;;;1.50;1.25;;;;;27.15;41.55;101693.22;5034628;28;51095;-62
2021/08/14 11:04:49;;;;;;;;;2.00;2.00;;;;;27.16;41.73;101696.84;5023857;28;51032;-62
2021/08/14 11:07:20;;;;;;;;;2.00;2.00;;;;;27.16;41.70;101699.63;5034031;28;51075;-62
2021/08/14 11:09:54;;;;;;;;;3.00;2.00;;;;;27.16;41.67;101688.50;5034203;28;51240;-62
2021/08/14 11:12:34;;;;;;;;;3.00;3.00;;;;;27.15;41.61;101681.25;5037524;28;51406;-61
2021/08/14 11:15:23;;;;;;;;;3.50;2.00;;;;;27.16;42.09;101683.78;5038017;28;51162;-61
2021/08/14 11:17:49;;;;;;;;;2.00;1.75;;;;;27.16;41.88;101682.94;5037785;28;51884;-62
2021/08/14 11:20:21;;;;;;;;;2.75;2.75;;;;;27.16;41.96;101682.94;5037634;28;51003;-61
2021/08/14 11:22:46;;;;;;;;;3.50;1.00;;;;;27.16;41.65;101683.78;5038126;28;51427;-61